Terminal Aerodrome Forecast
Issued by NWS

Home | Current Version | Previous Version | Text Only | Print | Product List | Glossary On
Versions: 1 2 3 4 5 6 7 8 9 10 11 12 13
098
FTUS42 TJSJ 292001 AAA
TAFISX
TAF AMD
TISX 292001Z 2920/3018 VRB05KT P6SM VCSH SCT022 SCT070
      TEMPO 2920/2922 RA BKN020
     FM301300 04011KT P6SM VCSH FEW030 FEW060=

USA.gov is the U.S. government's official web portal to all federal, state and local government web resources and services.